CDT,Max TemperatureF,Mean TemperatureF,Min TemperatureF,Max Dew PointF,MeanDew PointF,Min DewpointF,Max Humidity, Mean Humidity, Min Humidity, Max Sea Level PressureIn, Mean Sea Level PressureIn, Min Sea Level PressureIn, Max VisibilityMiles, Mean VisibilityMiles, Min VisibilityMiles, Max Wind SpeedMPH, Mean Wind SpeedMPH, Max Gust SpeedMPH,PrecipitationIn, CloudCover, Events, WindDirDegrees
2012-10-1,66,66,60,72,60,57,100,91,77,29.77,29.64,29.52,10,9,2,13,9,21,0.01,8,Rain,300
2012-10-2,75,66,57,60,56,51,97,75,42,29.99,29.88,29.76,10,9,5,8,2,,0.00,2,,300
2012-10-3,80,66,55,69,61,54,97,84,56,30.12,30.05,29.98,10,9,3,10,2,,0.03,2,Rain-Thunderstorm,154
2012-10-4,84,72,63,67,63,60,100,81,49,30.23,30.17,30.12,10,8,2,5,0,,0.01,0,,90
2012-10-5,84,71,60,66,60,55,96,74,38,30.16,30.08,30.00,10,10,8,4,0,,0.00,0,,-1
2012-10-6,77,67,55,64,61,53,97,83,64,30.07,30.03,29.98,10,9,3,13,4,16,0.01,3,,358
2012-10-7,63,56,51,53,50,46,97,84,67,30.17,30.11,30.07,10,10,4,14,9,18,0.00,6,,358
2012-10-8,66,57,48,51,47,44,90,73,50,30.19,30.13,30.10,10,10,10,12,5,18,0.00,2,,1
2012-10-9,73,60,48,58,51,46,93,76,46,30.17,30.09,30.02,10,10,9,5,1,,0.00,0,,250
2012-10-10,82,67,54,66,61,53,100,81,56,30.18,30.13,30.08,10,8,3,8,1,,0.01,3,,335
2012-10-11,84,72,62,68,63,60,97,80,49,30.24,30.19,30.15,10,8,4,6,1,,0.00,1,,138
2012-10-12,82,70,59,66,62,58,97,78,49,30.27,30.21,30.17,10,8,3,7,1,,0.01,0,,146
2012-10-13,82,71,60,68,64,57,100,86,54,30.24,30.17,30.09,10,6,0,13,2,22,0.01,2,Fog,164
2012-10-14,86,76,69,72,70,67,100,89,58,30.15,30.06,29.98,10,6,2,13,5,,0.00,4,,174
2012-10-15,80,68,55,72,62,50,100,81,36,30.04,29.99,29.94,10,7,1,10,3,,0.02,3,Rain,336
2012-10-16,75,64,53,60,53,50,93,70,43,30.01,29.93,29.86,10,10,10,6,2,,0.00,0,,114
2012-10-17,82,68,55,72,63,53,94,79,54,29.86,29.79,29.71,10,10,10,15,5,21,0.00,4,,178
2012-10-18,78,66,52,72,58,37,100,76,24,29.93,29.81,29.73,10,8,1,16,8,28,0.77,4,Rain-Thunderstorm,355
2012-10-19,75,60,46,48,42,32,96,63,21,29.95,29.91,29.86,10,10,10,17,3,24,0.00,0,,282
2012-10-20,80,61,43,54,45,34,97,66,22,30.01,29.96,29.93,10,10,9,6,0,,0.00,0,,244
2012-10-21,81,66,52,57,52,48,97,71,32,30.11,30.06,29.99,10,10,7,10,2,,0.00,1,,181
2012-10-22,80,66,52,62,56,50,97,76,43,30.14,30.09,30.04,10,10,8,9,2,,0.00,0,,147
2012-10-23,81,68,55,65,60,55,100,89,52,30.11,30.05,30.01,10,6,0,7,1,,0.01,3,Fog,140
2012-10-24,82,72,64,67,64,61,100,90,52,30.12,30.05,29.99,10,5,0,7,1,,0.01,2,Fog,132
2012-10-25,81,71,61,67,63,59,100,91,47,30.03,29.98,29.93,10,5,0,8,0,,0.00,3,Fog,110
2012-10-26,80,65,50,68,60,45,100,88,60,30.08,29.99,29.94,10,6,0,18,4,25,0.01,5,Fog,342
2012-10-27,57,52,46,45,42,38,87,76,57,30.09,30.04,29.99,10,10,10,17,12,23,0.00,6,,347
2012-10-28,62,52,41,38,36,33,82,64,35,30.17,30.09,30.05,10,10,10,20,9,25,0.00,0,,339
2012-10-29,61,48,37,36,32,26,89,57,27,30.22,30.15,30.09,10,10,10,17,8,26,0.00,0,,344
2012-10-30,66,51,36,43,35,31,89,60,27,30.11,30.06,29.99,10,10,10,15,5,18,0.00,0,,324
2012-10-31,75,58,42,56,49,39,93,74,44,30.05,30.00,29.94,10,10,10,10,2,,0.00,2,,266